CheckWX is a tool to help pilots better visualize weather data.  It is not intended as a substitute for an official pre-flight weather briefing.

17:26:38 UTC

MNMG TAF
Augusto C. Sandino (Managua) International Airport
Managua, Nicaragua
MNMG 181009Z 1812/1912 12008KT 9999 FEW020 SCT080 TEMPO 1815/1819 09012KT FEW023 BECMG 1820/1823 SCT024

Jun-18@
12:00 UTC

Jun-18 @ 12:00 UTC

Jun-18@
20:00 UTC

Jun-18 @ 20:00 UTC

MNMG 181009Z 1812/1912 12008KT 9999 FEW020 SCT080
Wind
  • 120° at 8 KTS
Cloud Levels
  • Few at 2,000' AGL
  • Scattered at 8,000' AGL

Jun-18@
15:00 UTC

Jun-18 @ 15:00 UTC

Jun-18@
19:00 UTC

Jun-18 @ 19:00 UTC

TEMPO 1815/1819 09012KT FEW023

Temporary

Temporary Changes expected for less than half the time period

Wind
  • 090° at 12 KTS
Cloud Levels
  • Few at 2,300' AGL

Jun-18@
20:00 UTC

Jun-18 @ 20:00 UTC

Jun-19@
12:00 UTC

Jun-19 @ 12:00 UTC

BECMG 1820/1823 SCT024

Becoming

Becoming Conditions expected by Tue, Jun 18, 2019 @ 23:00 UTC

Wind
  • 120° at 8 KTS
Cloud Levels
  • Scattered at 2,400' AGL